Terminal Aerodrome Forecast
Issued by NWS

Home | Current Version | Previous Version | Text Only | Print | Product List | Glossary Off
Versions: 1 2 3 4 5 6 7 8 9 10 11 12 13 14 15 16 17

000
FTUS43 KBIS 171730
TAFJMS
TAF
KJMS 171730Z 1718/1818 27013KT P6SM SCT250
     FM172200 30013KT P6SM SCT250
     FM180400 01007KT P6SM SCT250=

USA.gov is the U.S. government's official web portal to all federal, state and local government web resources and services.